Time;durP1;ratioP1;P1;durP2;ratioP2;P2;SDS_P1;SDS_P2;PMS_P1;PMS_P2;Temp;Humidity;BMP_temperature;BMP_pressure;BME280_temperature;BME280_humidity;BME280_pressure;Samples;Min_cycle;Max_cycle;Signal;HPM_P1;HPM_P2
2021/07/14 00:01:50;;;;;;;24.63;12.90;;;17.80;99.90;;;;;;5030202;28;20207;-72
2021/07/14 00:04:16;;;;;;;24.87;12.97;;;17.70;99.90;;;;;;5028132;28;20183;-72
2021/07/14 00:06:42;;;;;;;24.17;12.97;;;17.60;99.90;;;;;;5030677;28;20392;-72
2021/07/14 00:09:09;;;;;;;25.50;12.90;;;17.60;99.90;;;;;;5027407;28;20199;-72
2021/07/14 00:11:39;;;;;;;23.97;12.20;;;17.50;99.90;;;;;;5029468;28;20208;-72
2021/07/14 00:22:18;;;;;;;21.03;11.97;;;17.70;99.90;;;;;;5027220;28;20202;-72
2021/07/14 00:24:44;;;;;;;24.27;11.70;;;17.70;99.90;;;;;;5027906;28;20189;-72
2021/07/14 00:27:12;;;;;;;20.10;11.30;;;17.60;99.90;;;;;;5028217;28;20811;-72
2021/07/14 00:29:48;;;;;;;24.23;11.67;;;17.60;99.90;;;;;;5028563;28;20206;-72
2021/07/14 00:32:14;;;;;;;23.70;12.83;;;17.60;99.90;;;;;;5025801;28;20188;-72
2021/07/14 00:34:40;;;;;;;21.63;11.53;;;17.50;99.90;;;;;;5029955;28;20216;-72
2021/07/14 00:37:06;;;;;;;23.00;11.80;;;17.60;99.90;;;;;;5030342;28;20315;-72
2021/07/14 00:39:32;;;;;;;23.23;12.03;;;17.50;99.90;;;;;;5028610;28;20191;-72
2021/07/14 00:41:57;;;;;;;22.70;13.33;;;17.60;99.90;;;;;;5030748;28;20266;-72
2021/07/14 00:44:23;;;;;;;20.97;11.80;;;17.50;99.90;;;;;;5027511;28;20592;-72
2021/07/14 00:46:50;;;;;;;22.97;12.77;;;17.60;99.90;;;;;;5029120;28;20314;-72
2021/07/14 00:49:17;;;;;;;21.50;12.60;;;17.50;99.90;;;;;;5027932;28;20646;-72
2021/07/14 00:51:43;;;;;;;21.83;12.13;;;17.60;99.90;;;;;;5027538;28;20553;-72
2021/07/14 00:54:09;;;;;;;26.10;13.17;;;17.70;99.90;;;;;;5030338;28;20188;-73
2021/07/14 00:56:35;;;;;;;23.77;13.67;;;17.70;99.90;;;;;;5027032;28;20305;-73
2021/07/14 00:59:01;;;;;;;23.70;12.90;;;17.60;99.90;;;;;;5029247;28;20252;-73
2021/07/14 01:01:27;;;;;;;23.67;14.00;;;17.60;99.90;;;;;;5026626;28;20197;-72
2021/07/14 01:04:00;;;;;;;29.03;14.93;;;17.60;99.90;;;;;;5027806;28;20186;-72
2021/07/14 01:06:49;;;;;;;24.30;14.07;;;17.60;99.90;;;;;;5027681;28;20346;-72
2021/07/14 01:09:17;;;;;;;23.77;13.50;;;17.70;99.90;;;;;;5028284;28;20195;-72
2021/07/14 01:11:45;;;;;;;25.93;14.20;;;17.60;99.90;;;;;;5029379;28;20586;-72
2021/07/14 01:14:22;;;;;;;26.03;14.30;;;17.70;99.90;;;;;;5028385;28;20185;-72
2021/07/14 01:17:11;;;;;;;31.10;15.57;;;17.80;99.90;;;;;;5029564;28;20319;-72
2021/07/14 01:19:55;;;;;;;26.53;15.63;;;17.70;99.90;;;;;;5027641;28;20189;-72
2021/07/14 01:22:25;;;;;;;30.60;16.03;;;17.60;99.90;;;;;;5025729;28;20250;-72
2021/07/14 01:25:06;;;;;;;30.37;16.50;;;17.60;99.90;;;;;;5027470;28;20181;-72
2021/07/14 01:27:35;;;;;;;29.93;16.27;;;17.70;99.90;;;;;;5027879;28;20188;-72
2021/07/14 01:30:05;;;;;;;32.53;17.17;;;17.80;99.90;;;;;;5026681;28;20188;-72
2021/07/14 01:32:33;;;;;;;31.97;16.87;;;17.80;99.90;;;;;;5027369;28;20195;-72
2021/07/14 01:35:06;;;;;;;29.57;17.27;;;17.90;99.90;;;;;;5028594;28;20192;-72
2021/07/14 01:37:33;;;;;;;32.27;16.70;;;17.90;99.90;;;;;;5030680;28;20224;-72
2021/07/14 01:40:03;;;;;;;28.70;16.37;;;17.80;99.90;;;;;;5034225;28;20195;-72
2021/07/14 01:42:30;;;;;;;28.57;15.40;;;17.70;99.90;;;;;;5028896;28;20226;-72
2021/07/14 01:44:58;;;;;;;35.37;16.33;;;17.60;99.90;;;;;;5033761;28;20283;-72
2021/07/14 01:47:26;;;;;;;27.80;15.87;;;17.60;99.90;;;;;;5030788;28;20756;-72
2021/07/14 01:49:54;;;;;;;32.40;16.50;;;17.80;99.90;;;;;;5030297;28;20200;-72
2021/07/14 01:52:24;;;;;;;30.73;16.80;;;17.80;99.90;;;;;;5031554;28;20207;-71
2021/07/14 01:54:51;;;;;;;31.43;16.67;;;17.80;99.90;;;;;;5030735;28;20223;-73
2021/07/14 01:57:19;;;;;;;32.87;16.17;;;17.60;99.90;;;;;;5032321;28;20276;-72
2021/07/14 01:59:46;;;;;;;28.70;15.93;;;17.60;99.90;;;;;;5029713;28;20173;-71
2021/07/14 02:02:14;;;;;;;26.27;15.57;;;17.50;99.90;;;;;;5031731;28;20205;-71
2021/07/14 02:04:42;;;;;;;28.53;15.60;;;17.40;99.90;;;;;;5031026;28;20215;-71
2021/07/14 02:07:14;;;;;;;34.53;16.93;;;17.60;99.90;;;;;;5031095;28;20199;-71
2021/07/14 02:09:42;;;;;;;30.70;15.43;;;17.70;99.90;;;;;;5025381;28;20177;-71
2021/07/14 02:12:16;;;;;;;30.17;15.80;;;17.80;99.90;;;;;;5029463;28;20556;-71
2021/07/14 02:14:52;;;;;;;27.27;14.73;;;17.70;99.90;;;;;;5030452;28;20211;-71
2021/07/14 02:17:22;;;;;;;30.90;16.03;;;17.70;99.90;;;;;;5029164;28;20239;-71
2021/07/14 02:19:55;;;;;;;31.77;16.30;;;17.80;99.90;;;;;;5030058;28;20648;-72
2021/07/14 02:22:21;;;;;;;27.37;15.30;;;17.80;99.90;;;;;;5029610;28;20545;-71
2021/07/14 02:24:47;;;;;;;26.73;14.70;;;17.80;99.90;;;;;;5031499;28;20191;-72
2021/07/14 02:27:13;;;;;;;26.40;15.07;;;17.60;99.90;;;;;;5033058;28;20176;-71
2021/07/14 02:29:40;;;;;;;37.03;17.60;;;17.60;99.90;;;;;;5027459;28;20665;-71
2021/07/14 02:32:08;;;;;;;31.60;16.80;;;17.70;99.90;;;;;;5031819;28;20188;-72
2021/07/14 02:34:34;;;;;;;30.10;16.27;;;17.60;99.90;;;;;;5028991;28;20235;-72
2021/07/14 02:37:04;;;;;;;33.33;17.43;;;17.70;99.90;;;;;;5032482;28;20300;-72
2021/07/14 02:39:30;;;;;;;30.23;16.93;;;17.70;99.90;;;;;;5030818;28;20242;-72
2021/07/14 02:42:07;;;;;;;38.87;16.70;;;17.70;99.90;;;;;;5030472;28;20197;-72
2021/07/14 02:44:39;;;;;;;30.20;16.87;;;17.80;99.90;;;;;;5032842;28;20181;-72
2021/07/14 02:47:07;;;;;;;36.97;16.63;;;17.70;99.90;;;;;;5029711;28;20229;-72
2021/07/14 02:49:38;;;;;;;32.33;16.13;;;17.80;99.90;;;;;;5028204;28;20665;-72
2021/07/14 02:52:05;;;;;;;31.73;16.97;;;17.70;99.90;;;;;;5030655;28;20640;-72
2021/07/14 02:54:33;;;;;;;32.60;17.40;;;17.70;99.90;;;;;;5028314;28;20193;-72
2021/07/14 02:57:02;;;;;;;30.80;16.83;;;17.60;99.90;;;;;;5030723;28;20209;-72
2021/07/14 02:59:32;;;;;;;33.13;17.90;;;17.60;99.90;;;;;;5043422;28;20200;-72
2021/07/14 03:02:00;;;;;;;33.97;17.50;;;17.60;99.90;;;;;;5030520;28;20739;-72
2021/07/14 03:04:33;;;;;;;33.07;16.70;;;17.70;99.90;;;;;;5029936;28;20221;-72
2021/07/14 03:07:02;;;;;;;34.47;17.43;;;17.60;99.90;;;;;;5030810;28;20192;-72
2021/07/14 03:09:37;;;;;;;39.10;18.53;;;17.50;99.90;;;;;;5024576;28;20196;-72
2021/07/14 03:12:12;;;;;;;33.90;17.67;;;17.60;99.90;;;;;;5030863;28;20230;-72
2021/07/14 03:14:51;;;;;;;35.30;18.53;;;17.50;99.90;;;;;;5029987;28;20200;-72
2021/07/14 03:17:18;;;;;;;35.57;17.87;;;17.60;99.90;;;;;;5030297;28;20196;-72
2021/07/14 03:19:45;;;;;;;42.13;18.70;;;17.70;99.90;;;;;;5031528;28;20184;-72
2021/07/14 03:22:12;;;;;;;38.33;19.23;;;17.70;99.90;;;;;;5028440;28;20200;-72
2021/07/14 03:24:41;;;;;;;35.00;18.23;;;17.70;99.90;;;;;;5029722;28;20169;-72
2021/07/14 03:27:11;;;;;;;35.73;18.83;;;17.70;99.90;;;;;;5029421;28;20674;-72
2021/07/14 03:29:38;;;;;;;36.87;19.03;;;17.60;99.90;;;;;;5029829;28;20203;-72
2021/07/14 03:32:05;;;;;;;36.93;19.13;;;17.70;99.90;;;;;;5032016;28;20176;-72
2021/07/14 03:34:32;;;;;;;39.03;19.17;;;17.80;99.90;;;;;;5028187;28;20269;-72
2021/07/14 03:37:04;;;;;;;38.73;19.17;;;17.80;99.90;;;;;;5032178;28;20188;-72
2021/07/14 03:39:31;;;;;;;42.33;19.27;;;17.90;99.90;;;;;;5028699;28;20498;-72
2021/07/14 03:41:58;;;;;;;37.03;19.00;;;18.00;99.90;;;;;;5030562;28;20177;-71
2021/07/14 03:44:25;;;;;;;44.27;20.10;;;18.10;99.90;;;;;;5029088;28;20208;-72
2021/07/14 03:46:52;;;;;;;36.83;18.33;;;18.10;99.90;;;;;;5029243;28;20225;-72
2021/07/14 03:49:18;;;;;;;37.90;19.23;;;17.90;99.90;;;;;;5029209;28;20574;-72
2021/07/14 03:51:46;;;;;;;43.30;20.23;;;18.00;99.90;;;;;;5025366;28;20181;-72
2021/07/14 03:54:13;;;;;;;42.10;19.17;;;18.00;99.90;;;;;;5029696;28;20192;-72
2021/07/14 03:56:39;;;;;;;38.77;19.93;;;18.10;99.90;;;;;;5026755;28;20182;-72
2021/07/14 03:59:05;;;;;;;40.77;19.03;;;18.20;99.90;;;;;;5029723;28;20180;-72
2021/07/14 04:01:32;;;;;;;41.37;19.10;;;18.20;99.90;;;;;;5031405;28;20726;-72
2021/07/14 04:03:58;;;;;;;41.27;19.37;;;18.20;99.90;;;;;;5027281;28;20624;-72
2021/07/14 04:06:31;;;;;;;38.80;18.80;;;18.30;99.90;;;;;;5031306;28;20234;-72
2021/07/14 04:09:15;;;;;;;36.13;20.13;;;18.30;99.90;;;;;;5027542;28;20192;-72
2021/07/14 04:11:42;;;;;;;40.63;19.07;;;18.30;99.90;;;;;;5030426;28;20260;-72
2021/07/14 04:14:07;;;;;;;36.60;18.47;;;18.40;99.90;;;;;;5028019;28;20177;-72
2021/07/14 04:16:33;;;;;;;38.57;18.60;;;18.30;99.90;;;;;;5028848;28;20677;-72
2021/07/14 04:18:59;;;;;;;35.80;18.13;;;18.20;99.90;;;;;;5028771;28;20209;-72
2021/07/14 04:21:26;;;;;;;40.60;18.47;;;18.10;99.90;;;;;;5027810;28;20596;-72
2021/07/14 04:23:52;;;;;;;31.47;17.27;;;18.10;99.90;;;;;;5031012;28;20169;-72
2021/07/14 04:26:18;;;;;;;42.80;19.33;;;18.00;99.90;;;;;;5027645;28;20188;-72
2021/07/14 04:28:44;;;;;;;38.20;18.17;;;18.10;99.90;;;;;;5027920;28;20188;-72
2021/07/14 04:31:09;;;;;;;40.33;19.40;;;18.00;99.90;;;;;;5028151;28;20188;-72
2021/07/14 04:33:35;;;;;;;42.70;19.53;;;17.80;99.90;;;;;;5029428;28;20188;-72
2021/07/14 04:36:01;;;;;;;48.57;20.70;;;17.90;99.90;;;;;;5031053;28;20272;-72
2021/07/14 04:38:27;;;;;;;34.07;18.53;;;18.00;99.90;;;;;;5026250;28;20216;-72
2021/07/14 04:40:53;;;;;;;41.30;20.17;;;18.00;99.90;;;;;;5027997;28;20632;-72
2021/07/14 04:43:18;;;;;;;42.00;20.23;;;18.10;99.90;;;;;;5026609;28;20181;-72
2021/07/14 04:45:44;;;;;;;37.17;19.97;;;18.10;99.90;;;;;;5027929;28;20256;-72
2021/07/14 04:48:10;;;;;;;46.70;21.17;;;18.00;99.90;;;;;;5029120;28;20197;-72
2021/07/14 04:50:36;;;;;;;46.70;20.63;;;18.00;99.90;;;;;;5026173;28;20195;-72
2021/07/14 04:53:02;;;;;;;41.00;19.93;;;17.90;99.90;;;;;;5029966;28;20659;-72
2021/07/14 04:55:27;;;;;;;44.20;20.97;;;18.00;99.90;;;;;;5025492;28;20553;-72
2021/07/14 04:57:53;;;;;;;44.23;21.53;;;18.10;99.90;;;;;;5029978;28;20200;-72
2021/07/14 05:00:20;;;;;;;38.90;21.40;;;18.00;99.90;;;;;;5026364;28;20181;-71
2021/07/14 05:02:46;;;;;;;49.07;21.83;;;18.00;99.90;;;;;;5030167;28;20209;-71
2021/07/14 05:05:16;;;;;;;43.83;22.03;;;17.80;99.90;;;;;;5026142;28;20701;-72
2021/07/14 05:07:42;;;;;;;53.47;23.57;;;17.80;99.90;;;;;;5020761;28;20260;-71
2021/07/14 05:10:09;;;;;;;43.27;22.67;;;17.70;99.90;;;;;;5025944;28;20193;-72
2021/07/14 05:12:35;;;;;;;46.43;23.47;;;17.90;99.90;;;;;;5028811;28;20254;-72
2021/07/14 05:15:01;;;;;;;49.70;23.87;;;18.00;99.90;;;;;;5026086;28;20200;-72
2021/07/14 05:17:27;;;;;;;48.40;23.90;;;18.00;99.90;;;;;;5028434;28;20222;-71
2021/07/14 05:19:53;;;;;;;57.07;24.40;;;18.10;99.90;;;;;;5029280;28;20188;-71
2021/07/14 05:22:24;;;;;;;46.87;24.10;;;18.20;99.90;;;;;;5025929;28;20762;-72
2021/07/14 05:24:49;;;;;;;45.97;23.87;;;18.10;99.90;;;;;;5028631;28;20184;-72
2021/07/14 05:27:15;;;;;;;46.03;23.33;;;18.00;99.90;;;;;;5025220;28;20499;-71
2021/07/14 05:29:41;;;;;;;44.73;23.67;;;17.90;99.90;;;;;;5029128;28;20262;-72
2021/07/14 05:32:07;;;;;;;50.70;25.53;;;18.00;99.90;;;;;;5012060;28;20276;-71
2021/07/14 05:34:32;;;;;;;49.27;24.90;;;18.00;99.90;;;;;;5026690;28;20191;-71
2021/07/14 05:36:59;;;;;;;47.87;25.87;;;18.10;99.90;;;;;;5030269;28;20185;-71
2021/07/14 05:39:25;;;;;;;50.87;27.03;;;18.10;99.90;;;;;;5025061;28;20180;-72
2021/07/14 05:41:51;;;;;;;51.77;26.00;;;18.20;99.90;;;;;;5028044;28;20275;-71
2021/07/14 05:44:17;;;;;;;56.77;26.70;;;18.20;99.90;;;;;;5025902;28;20710;-71
2021/07/14 05:46:46;;;;;;;50.47;26.17;;;18.00;99.90;;;;;;5027323;28;20549;-71
2021/07/14 05:49:12;;;;;;;56.50;26.57;;;18.00;99.90;;;;;;5029905;28;20173;-71
2021/07/14 05:51:38;;;;;;;57.43;25.33;;;18.00;99.90;;;;;;5026492;28;20521;-71
2021/07/14 05:54:04;;;;;;;53.17;26.90;;;18.10;99.90;;;;;;5029098;28;20190;-71
2021/07/14 05:56:31;;;;;;;49.77;26.37;;;18.10;99.90;;;;;;5026116;28;20185;-71
2021/07/14 05:58:56;;;;;;;48.80;27.00;;;18.10;99.90;;;;;;5028190;28;20216;-71
2021/07/14 06:01:22;;;;;;;57.77;26.90;;;18.10;99.90;;;;;;5026809;28;20208;-71
2021/07/14 06:03:48;;;;;;;45.43;23.97;;;18.10;99.90;;;;;;5026377;28;20185;-72
2021/07/14 06:06:17;;;;;;;46.80;24.33;;;18.00;99.90;;;;;;5028138;28;20177;-72
2021/07/14 06:08:43;;;;;;;45.10;23.30;;;18.10;99.90;;;;;;5027066;28;20665;-71
2021/07/14 06:11:10;;;;;;;39.93;21.27;;;18.00;99.90;;;;;;5028604;28;20334;-71
2021/07/14 06:13:36;;;;;;;38.00;20.47;;;17.70;99.90;;;;;;5027169;28;20181;-71
2021/07/14 06:16:01;;;;;;;40.23;21.03;;;17.70;99.90;;;;;;5028033;28;20191;-71
2021/07/14 06:18:27;;;;;;;37.87;20.13;;;17.80;99.90;;;;;;5027185;28;20758;-72
2021/07/14 06:20:53;;;;;;;34.77;20.47;;;17.70;99.90;;;;;;5027891;28;20186;-71
2021/07/14 06:23:19;;;;;;;40.93;21.57;;;17.80;99.90;;;;;;5035603;28;20661;-71
2021/07/14 06:25:45;;;;;;;44.57;23.77;;;17.90;99.90;;;;;;5028657;28;20181;-71
2021/07/14 06:28:13;;;;;;;44.97;24.20;;;17.90;99.90;;;;;;5032225;28;20184;-71
2021/07/14 06:30:43;;;;;;;41.60;22.53;;;18.00;99.90;;;;;;5032924;28;20215;-71
2021/07/14 06:33:09;;;;;;;35.67;20.77;;;18.00;99.90;;;;;;5031188;28;20240;-71
2021/07/14 06:35:35;;;;;;;37.33;21.23;;;17.80;99.90;;;;;;5034602;28;20670;-71
2021/07/14 06:38:01;;;;;;;38.20;19.60;;;17.70;99.90;;;;;;5029829;28;20201;-71
2021/07/14 06:40:27;;;;;;;35.93;18.43;;;17.80;99.90;;;;;;5032299;28;20202;-71
2021/07/14 06:42:53;;;;;;;36.90;19.93;;;17.70;99.90;;;;;;5029994;28;20220;-71
2021/07/14 06:45:24;;;;;;;35.60;19.40;;;17.60;99.90;;;;;;5029643;28;20204;-72
2021/07/14 06:47:50;;;;;;;39.03;21.67;;;17.60;99.90;;;;;;5030254;28;20184;-72
2021/07/14 06:50:16;;;;;;;34.83;20.53;;;17.60;99.90;;;;;;5029988;28;20205;-72
2021/07/14 06:52:43;;;;;;;39.20;20.93;;;17.70;99.90;;;;;;5032528;28;20188;-72
2021/07/14 06:55:10;;;;;;;38.57;21.30;;;17.80;99.90;;;;;;5030666;28;20186;-72
2021/07/14 06:57:37;;;;;;;36.90;19.00;;;18.00;99.90;;;;;;5031085;28;20200;-72
2021/07/14 07:00:05;;;;;;;31.23;15.60;;;18.00;99.90;;;;;;5030464;28;20298;-72
2021/07/14 07:02:31;;;;;;;31.07;17.47;;;18.00;99.90;;;;;;5031313;28;20691;-72
2021/07/14 07:04:57;;;;;;;34.77;20.70;;;18.00;99.90;;;;;;5025330;28;20186;-72
2021/07/14 07:07:23;;;;;;;35.27;21.67;;;18.00;99.90;;;;;;5029769;28;20667;-72
2021/07/14 07:09:48;;;;;;;39.97;22.57;;;18.00;99.90;;;;;;5024158;28;20197;-72
2021/07/14 07:12:14;;;;;;;42.97;24.33;;;18.00;99.90;;;;;;5027130;28;20184;-72
2021/07/14 07:14:43;;;;;;;42.00;24.47;;;18.10;99.90;;;;;;5027205;28;20204;-72
2021/07/14 07:17:08;;;;;;;35.77;23.73;;;18.10;99.90;;;;;;5024799;28;20208;-72
2021/07/14 07:19:34;;;;;;;40.20;23.47;;;18.20;99.90;;;;;;5028816;28;20223;-72
2021/07/14 07:22:00;;;;;;;31.73;21.80;;;18.20;99.90;;;;;;5028859;28;20469;-72
2021/07/14 07:24:26;;;;;;;32.47;19.43;;;18.20;99.90;;;;;;5027958;28;20215;-71
2021/07/14 07:26:52;;;;;;;33.10;20.47;;;18.20;99.90;;;;;;5031061;28;20193;-72
2021/07/14 07:29:17;;;;;;;32.77;19.07;;;18.20;99.90;;;;;;5028339;28;20235;-71
2021/07/14 07:31:44;;;;;;;30.13;17.87;;;18.10;99.90;;;;;;5028819;28;20185;-72
2021/07/14 07:34:10;;;;;;;27.17;16.73;;;18.10;99.90;;;;;;5026163;28;20178;-72
2021/07/14 07:36:35;;;;;;;24.53;14.83;;;17.90;99.90;;;;;;5030602;28;20192;-72
2021/07/14 07:39:02;;;;;;;25.07;16.80;;;17.90;99.90;;;;;;5028651;28;20192;-72
2021/07/14 07:41:28;;;;;;;28.43;16.17;;;18.00;99.90;;;;;;5027530;28;20192;-72
2021/07/14 07:43:55;;;;;;;24.70;15.70;;;18.20;99.90;;;;;;5028900;28;20188;-72
2021/07/14 07:46:22;;;;;;;26.07;16.53;;;18.30;99.90;;;;;;5027597;28;20719;-72
2021/07/14 07:48:47;;;;;;;25.77;16.03;;;18.30;99.90;;;;;;5030553;28;20189;-72
2021/07/14 07:51:13;;;;;;;24.30;14.67;;;18.30;99.90;;;;;;5025187;28;20570;-72
2021/07/14 07:53:39;;;;;;;21.97;14.10;;;18.30;99.90;;;;;;5028274;28;20190;-72
2021/07/14 07:56:06;;;;;;;20.13;13.60;;;18.20;99.90;;;;;;5030977;28;20192;-72
2021/07/14 07:58:32;;;;;;;19.93;13.10;;;18.20;99.90;;;;;;5027616;28;20219;-72
2021/07/14 08:00:58;;;;;;;19.43;12.93;;;18.20;99.90;;;;;;5027539;28;20262;-71
2021/07/14 08:03:24;;;;;;;19.83;12.17;;;18.20;99.90;;;;;;5030015;28;20639;-72
2021/07/14 08:05:50;;;;;;;17.80;12.63;;;18.10;99.90;;;;;;5028206;28;20178;-72
2021/07/14 08:08:16;;;;;;;20.37;12.77;;;18.10;99.90;;;;;;5030544;28;20325;-71
2021/07/14 08:10:43;;;;;;;21.70;14.13;;;18.00;99.90;;;;;;5029219;28;20696;-72
2021/07/14 08:13:09;;;;;;;22.77;14.53;;;18.10;99.90;;;;;;5028876;28;20196;-72
2021/07/14 08:15:35;;;;;;;20.30;13.43;;;18.10;99.90;;;;;;5029716;28;20189;-71
2021/07/14 08:18:01;;;;;;;20.67;13.20;;;18.10;99.90;;;;;;5027041;28;20632;-72
2021/07/14 08:20:27;;;;;;;22.50;13.47;;;18.00;99.90;;;;;;5031252;28;20266;-72
2021/07/14 08:22:54;;;;;;;20.53;12.00;;;17.90;99.90;;;;;;5026898;28;20199;-72
2021/07/14 08:25:20;;;;;;;19.43;11.70;;;17.90;99.90;;;;;;5029228;28;20173;-71
2021/07/14 08:27:46;;;;;;;19.90;11.60;;;17.80;99.90;;;;;;5028196;28;20235;-72
2021/07/14 08:30:13;;;;;;;19.87;12.73;;;17.70;99.90;;;;;;5028725;28;20196;-71
2021/07/14 08:32:39;;;;;;;20.13;11.93;;;17.80;99.90;;;;;;5028653;28;20238;-72
2021/07/14 08:35:07;;;;;;;20.57;12.50;;;17.70;99.90;;;;;;5027325;28;20206;-72
2021/07/14 08:37:33;;;;;;;21.60;12.87;;;17.80;99.90;;;;;;5026572;28;20625;-72
2021/07/14 08:39:59;;;;;;;20.97;13.00;;;17.60;99.90;;;;;;5024095;28;20180;-72
2021/07/14 08:42:26;;;;;;;26.47;13.43;;;17.70;99.90;;;;;;5028332;28;20233;-72
2021/07/14 08:44:53;;;;;;;20.23;12.30;;;17.90;99.90;;;;;;5026336;28;20190;-71
2021/07/14 08:47:19;;;;;;;21.80;12.50;;;17.80;99.90;;;;;;5028389;28;20224;-72
2021/07/14 08:49:49;;;;;;;21.77;12.33;;;17.80;99.90;;;;;;5026846;28;20187;-72
2021/07/14 08:52:17;;;;;;;24.30;12.47;;;17.90;99.90;;;;;;5026950;28;20201;-72
2021/07/14 08:54:45;;;;;;;20.13;11.93;;;18.00;99.90;;;;;;5027542;28;20422;-72
2021/07/14 08:57:13;;;;;;;21.30;12.30;;;17.60;99.90;;;;;;5027115;28;20299;-72
2021/07/14 08:59:40;;;;;;;17.57;10.67;;;17.80;99.90;;;;;;5028278;28;20200;-72
2021/07/14 09:02:06;;;;;;;19.07;10.73;;;18.00;99.90;;;;;;5030319;28;20682;-72
2021/07/14 09:04:32;;;;;;;21.10;11.30;;;18.10;99.90;;;;;;5026187;28;20188;-72
2021/07/14 09:06:58;;;;;;;19.03;10.67;;;18.10;99.90;;;;;;5028661;28;20605;-72
2021/07/14 09:09:24;;;;;;;17.10;10.00;;;18.00;99.90;;;;;;5027221;28;20321;-72
2021/07/14 09:11:50;;;;;;;18.10;11.30;;;18.10;99.90;;;;;;5027255;28;20192;-72
2021/07/14 09:14:26;;;;;;;22.33;13.63;;;18.20;99.90;;;;;;5028713;28;20186;-72
2021/07/14 09:16:52;;;;;;;26.40;17.73;;;18.10;99.90;;;;;;5026043;28;20211;-72
2021/07/14 09:19:24;;;;;;;28.67;20.33;;;18.10;99.90;;;;;;5030066;28;20176;-72
2021/07/14 09:21:50;;;;;;;33.13;23.23;;;18.20;99.90;;;;;;5026483;28;20219;-73
2021/07/14 09:24:29;;;;;;;31.37;21.97;;;18.00;99.90;;;;;;5027002;28;20255;-73
2021/07/14 09:26:56;;;;;;;31.20;21.40;;;17.90;99.90;;;;;;5026258;28;20184;-73
2021/07/14 09:29:23;;;;;;;32.83;22.50;;;18.00;99.90;;;;;;5027126;28;20184;-72
2021/07/14 09:31:50;;;;;;;39.27;24.20;;;18.10;99.90;;;;;;5027730;28;20261;-72
2021/07/14 09:34:30;;;;;;;34.47;23.53;;;18.30;99.90;;;;;;5026367;28;20208;-72
2021/07/14 09:37:02;;;;;;;32.90;21.90;;;18.30;99.90;;;;;;5029546;28;20184;-72
2021/07/14 09:39:38;;;;;;;34.83;20.53;;;18.30;99.90;;;;;;5025777;28;20196;-71
2021/07/14 09:42:09;;;;;;;36.07;20.53;;;18.20;99.90;;;;;;5008655;28;20666;-71
2021/07/14 09:44:45;;;;;;;29.77;18.73;;;18.30;99.90;;;;;;5026092;28;20181;-71
2021/07/14 09:47:12;;;;;;;26.47;18.67;;;18.20;99.90;;;;;;5028901;28;20770;-72
2021/07/14 09:49:38;;;;;;;29.67;19.10;;;18.10;99.90;;;;;;5027140;28;20288;-72
2021/07/14 09:52:15;;;;;;;27.60;16.47;;;18.20;99.90;;;;;;5027191;28;20686;-72
2021/07/14 09:54:41;;;;;;;29.37;15.93;;;18.20;99.90;;;;;;5029009;28;20188;-73
2021/07/14 09:57:12;;;;;;;21.60;14.67;;;18.40;99.90;;;;;;5009655;28;20523;-73
2021/07/14 09:59:38;;;;;;;24.87;16.73;;;18.30;99.90;;;;;;5031561;28;20188;-71
2021/07/14 10:02:05;;;;;;;29.23;17.63;;;18.20;99.90;;;;;;5025275;28;20326;-71
2021/07/14 10:04:36;;;;;;;27.40;17.53;;;18.20;99.90;;;;;;5032762;28;20241;-71
2021/07/14 10:07:12;;;;;;;23.00;14.20;;;18.10;99.90;;;;;;5032433;28;20188;-71
2021/07/14 10:09:38;;;;;;;26.53;14.90;;;17.90;99.90;;;;;;5030347;28;20196;-71
2021/07/14 10:12:34;;;;;;;28.43;16.00;;;18.00;99.90;;;;;;5014885;28;20176;-72
2021/07/14 10:15:15;;;;;;;27.40;15.57;;;17.90;99.90;;;;;;5029326;28;20241;-71
2021/07/14 10:17:44;;;;;;;28.47;16.47;;;17.90;99.90;;;;;;5032230;28;20599;-71
2021/07/14 10:20:26;;;;;;;28.00;16.20;;;17.90;99.90;;;;;;5034398;28;20235;-71
2021/07/14 10:22:56;;;;;;;27.40;16.23;;;17.90;99.90;;;;;;5031273;28;20192;-72
2021/07/14 10:25:23;;;;;;;26.53;15.47;;;17.90;99.90;;;;;;5029940;28;20196;-72
2021/07/14 10:27:50;;;;;;;29.13;15.03;;;18.00;99.90;;;;;;5030179;28;20679;-72
2021/07/14 10:30:18;;;;;;;25.93;13.63;;;18.00;99.90;;;;;;5031704;28;20650;-72
2021/07/14 10:32:44;;;;;;;24.07;15.03;;;18.00;99.90;;;;;;5030114;28;20223;-72
2021/07/14 10:35:19;;;;;;;21.93;13.00;;;18.10;99.90;;;;;;5030475;28;20187;-72
2021/07/14 10:37:57;;;;;;;21.97;12.47;;;18.10;99.90;;;;;;5034450;28;20792;-72
2021/07/14 10:40:24;;;;;;;22.00;13.37;;;18.00;99.90;;;;;;5030960;28;20276;-72
2021/07/14 10:42:51;;;;;;;23.87;14.27;;;18.00;99.90;;;;;;5031988;28;20260;-72
2021/07/14 10:45:17;;;;;;;24.30;15.83;;;18.00;99.90;;;;;;5029670;28;20271;-72
2021/07/14 10:47:45;;;;;;;26.67;16.47;;;18.10;99.90;;;;;;5029847;28;20234;-72
2021/07/14 10:50:12;;;;;;;34.30;22.80;;;18.30;99.90;;;;;;5029824;28;20563;-71
2021/07/14 10:52:39;;;;;;;34.87;23.80;;;18.30;99.90;;;;;;5028396;28;20551;-72
2021/07/14 10:55:07;;;;;;;35.93;24.87;;;18.40;99.90;;;;;;5026727;28;20206;-72
2021/07/14 10:57:35;;;;;;;33.30;23.63;;;18.20;99.90;;;;;;5031046;28;20216;-72
2021/07/14 11:00:03;;;;;;;37.97;24.27;;;18.20;99.90;;;;;;5022334;28;20239;-73
2021/07/14 11:02:42;;;;;;;33.40;21.20;;;18.30;99.90;;;;;;5030282;28;20248;-72
2021/07/14 11:05:13;;;;;;;27.23;18.93;;;18.20;99.90;;;;;;5030578;28;20576;-72
2021/07/14 11:07:44;;;;;;;30.67;18.77;;;18.20;99.90;;;;;;5028951;28;20185;-72
2021/07/14 11:10:30;;;;;;;33.03;21.80;;;18.20;99.90;;;;;;5030486;28;20193;-73
2021/07/14 11:12:58;;;;;;;40.87;26.13;;;18.30;99.90;;;;;;5025660;28;20196;-73
2021/07/14 11:15:33;;;;;;;43.00;27.80;;;18.30;99.90;;;;;;5030352;28;20185;-72
2021/07/14 11:18:00;;;;;;;46.53;28.33;;;18.30;99.90;;;;;;5030469;28;20267;-73
2021/07/14 11:20:37;;;;;;;41.70;26.83;;;18.30;99.90;;;;;;5026256;28;20546;-71
2021/07/14 11:23:19;;;;;;;41.17;27.90;;;18.40;99.90;;;;;;5028963;28;20604;-72
2021/07/14 11:25:55;;;;;;;39.33;26.50;;;18.50;99.90;;;;;;5029250;28;20670;-72
2021/07/14 11:28:22;;;;;;;38.90;26.20;;;18.40;99.90;;;;;;5029131;28;20270;-72
2021/07/14 11:30:50;;;;;;;37.83;25.33;;;18.50;99.90;;;;;;5031165;28;20188;-72
2021/07/14 11:33:32;;;;;;;35.07;24.57;;;18.50;99.90;;;;;;5028981;28;20197;-72
2021/07/14 11:36:07;;;;;;;33.47;22.17;;;18.40;99.90;;;;;;5029883;28;20530;-72
2021/07/14 11:38:46;;;;;;;30.97;21.00;;;18.40;99.90;;;;;;5028064;28;20224;-71
2021/07/14 11:41:24;;;;;;;26.53;18.20;;;18.30;99.90;;;;;;5028351;28;20250;-72
2021/07/14 11:43:52;;;;;;;28.50;18.73;;;18.30;99.90;;;;;;5030251;28;20633;-72
2021/07/14 11:46:24;;;;;;;28.33;18.53;;;18.20;99.90;;;;;;5027238;28;20224;-72
2021/07/14 11:49:03;;;;;;;29.80;19.47;;;18.30;99.90;;;;;;5018739;28;20633;-72
2021/07/14 11:51:34;;;;;;;28.40;19.77;;;18.50;99.90;;;;;;5043301;28;20178;-72
2021/07/14 11:54:00;;;;;;;29.33;20.00;;;18.60;99.90;;;;;;5029281;28;20204;-73
2021/07/14 11:56:26;;;;;;;27.23;19.47;;;18.60;99.90;;;;;;5026826;28;20202;-72
2021/07/14 11:59:09;;;;;;;30.37;21.13;;;18.40;99.90;;;;;;5028072;28;20196;-72
2021/07/14 12:01:35;;;;;;;31.03;22.50;;;18.30;99.90;;;;;;5026937;28;20216;-72
2021/07/14 12:04:05;;;;;;;32.37;23.17;;;18.40;99.90;;;;;;5028831;28;20182;-72
2021/07/14 12:06:34;;;;;;;33.47;24.03;;;18.60;99.90;;;;;;5022304;28;20224;-72
2021/07/14 12:09:12;;;;;;;33.20;24.00;;;18.70;99.90;;;;;;5027100;28;20211;-72
2021/07/14 12:11:43;;;;;;;35.30;26.77;;;18.60;99.90;;;;;;5028265;28;20272;-72
2021/07/14 12:14:24;;;;;;;38.47;27.10;;;18.70;99.90;;;;;;5027671;28;20184;-72
2021/07/14 12:17:09;;;;;;;44.03;28.70;;;18.60;99.90;;;;;;5029277;28;20279;-72
2021/07/14 12:19:47;;;;;;;39.10;27.90;;;18.50;99.90;;;;;;5027906;28;20198;-72
2021/07/14 12:22:17;;;;;;;37.63;26.20;;;18.50;99.90;;;;;;5030518;28;20192;-72
2021/07/14 12:24:48;;;;;;;40.57;26.57;;;18.50;99.90;;;;;;5026423;28;20197;-72
2021/07/14 12:27:20;;;;;;;35.47;25.83;;;18.60;99.90;;;;;;5029826;28;20275;-72
2021/07/14 12:29:54;;;;;;;35.43;24.87;;;18.70;99.90;;;;;;5027080;28;20189;-72
2021/07/14 12:32:32;;;;;;;36.60;24.93;;;18.90;99.90;;;;;;5025845;28;20547;-72
2021/07/14 12:34:58;;;;;;;35.60;25.63;;;18.80;99.90;;;;;;5027860;28;20233;-72
2021/07/14 12:37:24;;;;;;;37.60;26.93;;;18.70;99.90;;;;;;5029227;28;20213;-72
2021/07/14 12:39:50;;;;;;;37.13;26.07;;;18.80;99.90;;;;;;5028352;28;20264;-73
2021/07/14 12:42:22;;;;;;;37.47;26.70;;;18.80;99.90;;;;;;5025949;28;20644;-72
2021/07/14 12:44:50;;;;;;;34.83;25.53;;;18.80;99.90;;;;;;5029664;28;20650;-72